Gosforth, United Kingdom
Current Conditions -  °F | °C
As of 12:20 PM on Thursday 18 Dec 2014 (Local Time) from EGNT Reporting Station
Scattered Clouds Scattered Clouds  
Wind Chill: 13°   Ceiling: Unl
Heat Index: 13°   Visibility: 6mi
Dew Point: 10°   Wind: 29mph
Humidity: 82%   Direction: 250°WSW
Pressure: 29.32"   Gusts: 43mph
Location:  55°N, 1.62°W
Report Text: EGNT 181220Z 25025G37KT 9999 SCT022 13/10 Q0993
Loading
Personal Weather Stations






























Interactive Weather Map New forecast layout! Learn more

10-Day Weather Forecast

Advertisements
Track Severe Weather on mobile